Time;durP1;ratioP1;P1;durP2;ratioP2;P2;SDS_P1;SDS_P2;PMS_P1;PMS_P2;Temp;Humidity;BMP_temperature;BMP_pressure;BME280_temperature;BME280_humidity;BME280_pressure;Samples;Min_cycle;Max_cycle;Signal;HPM_P1;HPM_P2
2021/06/06 00:02:15;;;;;;;2.53;1.30;;;14.00;99.40;;;;;;5038433;28;20177;-68
2021/06/06 00:04:45;;;;;;;4.30;1.33;;;14.00;99.40;;;;;;5032814;28;20188;-70
2021/06/06 00:07:15;;;;;;;4.50;1.50;;;14.20;99.40;;;;;;5033275;28;20275;-71
2021/06/06 00:09:43;;;;;;;2.30;1.13;;;14.20;99.10;;;;;;5033241;28;20203;-70
2021/06/06 00:12:10;;;;;;;4.33;1.10;;;14.40;99.30;;;;;;5032212;28;20204;-70
2021/06/06 00:14:40;;;;;;;4.80;1.30;;;14.60;99.00;;;;;;5030208;28;20197;-68
2021/06/06 00:17:11;;;;;;;7.63;1.60;;;14.70;98.80;;;;;;5030940;28;20547;-72
2021/06/06 00:19:39;;;;;;;2.73;1.10;;;14.90;98.40;;;;;;5031921;28;20177;-70
2021/06/06 00:22:08;;;;;;;6.43;1.60;;;14.80;98.30;;;;;;5031226;28;20243;-71
2021/06/06 00:24:37;;;;;;;2.87;1.10;;;14.90;98.10;;;;;;5031118;28;20561;-73
2021/06/06 00:27:05;;;;;;;5.63;1.33;;;15.00;98.00;;;;;;5032066;28;20203;-71
2021/06/06 00:29:33;;;;;;;2.10;1.20;;;15.00;97.20;;;;;;5031530;28;20204;-71
2021/06/06 00:32:00;;;;;;;2.43;1.07;;;15.00;97.60;;;;;;5033164;28;20235;-69
2021/06/06 00:34:28;;;;;;;3.47;1.23;;;15.20;97.00;;;;;;5032743;28;20177;-69
2021/06/06 00:36:56;;;;;;;2.57;1.37;;;15.30;97.60;;;;;;5033021;28;20192;-69
2021/06/06 00:39:23;;;;;;;2.77;1.07;;;15.50;97.10;;;;;;5030541;28;20691;-68
2021/06/06 00:41:52;;;;;;;4.60;1.10;;;15.60;96.30;;;;;;5022954;28;20177;-69
2021/06/06 00:44:21;;;;;;;3.53;1.50;;;15.70;96.10;;;;;;5027306;28;20190;-69
2021/06/06 00:46:48;;;;;;;5.07;1.20;;;15.80;96.80;;;;;;5017159;28;20192;-69
2021/06/06 00:49:16;;;;;;;3.40;1.27;;;15.90;95.90;;;;;;5032441;28;20212;-68
2021/06/06 00:51:53;;;;;;;7.40;1.47;;;16.00;95.50;;;;;;5032555;28;20267;-69
2021/06/06 00:54:23;;;;;;;1.97;0.90;;;16.10;94.80;;;;;;5026403;28;20246;-67
2021/06/06 00:57:02;;;;;;;7.47;1.00;;;16.20;95.00;;;;;;5050989;28;20208;-69
2021/06/06 00:59:31;;;;;;;2.40;1.20;;;16.30;95.30;;;;;;5031560;28;20181;-69
2021/06/06 01:01:58;;;;;;;2.00;1.17;;;16.40;94.80;;;;;;5031719;28;20179;-69
2021/06/06 01:04:26;;;;;;;2.60;1.00;;;16.60;94.50;;;;;;5032228;28;20627;-72
2021/06/06 01:06:54;;;;;;;3.07;1.23;;;16.60;94.40;;;;;;5032194;28;20182;-69
2021/06/06 01:09:26;;;;;;;5.37;1.37;;;16.70;94.30;;;;;;5014869;28;20188;-69
2021/06/06 01:11:59;;;;;;;4.00;1.00;;;16.80;93.70;;;;;;5012840;28;20191;-69
2021/06/06 01:14:38;;;;;;;3.00;1.20;;;16.90;93.40;;;;;;5023062;28;20928;-67
2021/06/06 01:17:15;;;;;;;4.87;1.20;;;17.10;93.10;;;;;;5032100;28;20217;-69
2021/06/06 01:20:14;;;;;;;3.70;1.33;;;17.00;92.50;;;;;;5012524;28;20261;-68
2021/06/06 01:22:58;;;;;;;3.70;1.00;;;17.20;93.00;;;;;;5025439;28;20216;-67
2021/06/06 01:25:30;;;;;;;5.57;1.13;;;17.30;93.10;;;;;;5032110;28;20183;-68
2021/06/06 01:28:08;;;;;;;2.57;1.10;;;17.50;92.30;;;;;;5032237;28;20181;-66
2021/06/06 01:30:39;;;;;;;2.73;1.20;;;17.50;92.30;;;;;;5031839;28;20658;-68
2021/06/06 01:33:16;;;;;;;8.50;1.60;;;17.70;91.60;;;;;;5032429;28;20535;-68
2021/06/06 01:35:57;;;;;;;3.13;1.10;;;17.80;91.50;;;;;;5032299;28;20230;-67
2021/06/06 01:38:36;;;;;;;2.50;1.10;;;17.90;91.30;;;;;;5031396;28;20216;-70
2021/06/06 01:41:10;;;;;;;1.77;1.17;;;18.10;90.40;;;;;;5032255;28;20635;-69
2021/06/06 01:43:44;;;;;;;3.97;1.20;;;18.30;90.80;;;;;;5028925;28;20599;-68
2021/06/06 01:46:25;;;;;;;4.77;1.23;;;18.40;90.60;;;;;;5031979;28;20666;-68
2021/06/06 01:48:54;;;;;;;3.60;1.03;;;18.60;89.20;;;;;;5030447;28;20206;-67
2021/06/06 01:51:39;;;;;;;3.83;1.37;;;18.80;88.40;;;;;;5031768;28;20219;-68
2021/06/06 01:54:13;;;;;;;4.40;1.00;;;18.90;87.70;;;;;;5031027;28;20184;-69
2021/06/06 01:56:45;;;;;;;1.37;1.00;;;18.80;86.80;;;;;;5031267;28;20196;-72
2021/06/06 01:59:21;;;;;;;5.57;1.50;;;19.00;87.20;;;;;;5031990;28;20639;-69
2021/06/06 02:01:49;;;;;;;3.80;1.20;;;19.10;87.00;;;;;;5012338;28;20224;-68
2021/06/06 02:04:17;;;;;;;2.10;1.00;;;19.20;85.60;;;;;;5010876;28;20645;-69
2021/06/06 02:06:49;;;;;;;1.73;1.00;;;19.20;85.40;;;;;;5031987;28;20176;-67
2021/06/06 02:09:22;;;;;;;3.13;1.50;;;19.40;85.50;;;;;;5031680;28;20177;-68
2021/06/06 02:11:54;;;;;;;1.47;0.93;;;19.60;85.20;;;;;;5030600;28;20275;-66
2021/06/06 02:14:25;;;;;;;2.60;1.10;;;19.50;84.00;;;;;;5030621;28;20631;-69
2021/06/06 02:16:56;;;;;;;2.93;0.90;;;19.40;82.20;;;;;;5035382;28;20212;-69
2021/06/06 02:19:26;;;;;;;1.83;1.00;;;19.70;83.20;;;;;;5035376;28;20188;-68
2021/06/06 02:21:56;;;;;;;3.17;1.00;;;19.80;83.30;;;;;;5035419;28;20180;-68
2021/06/06 02:24:24;;;;;;;3.80;1.03;;;19.70;82.50;;;;;;5034931;28;20183;-68
2021/06/06 02:27:06;;;;;;;2.97;0.97;;;19.80;81.40;;;;;;5035147;28;20267;-69
2021/06/06 02:30:10;;;;;;;2.70;1.00;;;19.90;82.30;;;;;;5035251;28;20172;-68
2021/06/06 02:33:05;;;;;;;2.83;1.30;;;19.90;81.60;;;;;;5025538;28;20197;-68
2021/06/06 02:35:44;;;;;;;1.43;0.80;;;20.20;81.30;;;;;;5034922;28;20188;-67
2021/06/06 02:38:20;;;;;;;2.13;0.93;;;20.30;80.70;;;;;;5034497;28;20726;-68
2021/06/06 02:41:11;;;;;;;2.93;1.20;;;20.10;79.80;;;;;;5033799;28;20184;-68
2021/06/06 02:44:10;;;;;;;3.43;1.10;;;20.20;79.50;;;;;;5035316;28;20181;-69
2021/06/06 02:46:40;;;;;;;2.70;1.10;;;20.30;80.20;;;;;;5034952;28;20180;-68
2021/06/06 02:49:13;;;;;;;5.03;1.07;;;20.60;80.90;;;;;;5034994;28;20185;-68
2021/06/06 02:51:48;;;;;;;4.53;1.60;;;20.50;79.60;;;;;;5034988;28;20208;-68
2021/06/06 02:54:27;;;;;;;4.87;1.57;;;20.60;80.70;;;;;;5034744;28;20190;-68
2021/06/06 02:57:00;;;;;;;3.30;1.30;;;20.70;79.80;;;;;;5015079;28;20212;-70
2021/06/06 02:59:53;;;;;;;2.17;1.03;;;20.60;79.30;;;;;;5023737;28;20238;-69
2021/06/06 03:02:27;;;;;;;4.70;0.90;;;20.70;78.90;;;;;;5031951;28;20195;-71
2021/06/06 03:04:59;;;;;;;2.60;1.00;;;20.60;78.90;;;;;;5034568;28;20186;-70
2021/06/06 03:07:35;;;;;;;4.67;1.50;;;20.60;79.70;;;;;;5034666;28;20623;-71
2021/06/06 03:10:03;;;;;;;6.93;1.40;;;20.60;80.10;;;;;;5035014;28;20173;-70
2021/06/06 03:12:31;;;;;;;3.53;1.33;;;20.60;80.30;;;;;;5034398;28;20180;-70
2021/06/06 03:15:01;;;;;;;2.47;0.80;;;20.90;81.00;;;;;;5034423;28;20180;-69
2021/06/06 03:17:40;;;;;;;2.20;1.10;;;21.20;79.50;;;;;;5034624;28;20662;-70
2021/06/06 03:20:16;;;;;;;4.47;0.90;;;21.20;79.60;;;;;;5034619;28;20180;-74
2021/06/06 03:22:46;;;;;;;3.33;0.70;;;21.40;77.90;;;;;;5034626;28;20183;-72
2021/06/06 03:25:37;;;;;;;5.53;1.10;;;21.10;78.30;;;;;;5029169;28;20177;-71
2021/06/06 03:28:06;;;;;;;1.73;0.87;;;21.20;78.70;;;;;;5017196;28;20188;-69
2021/06/06 03:30:50;;;;;;;2.20;0.90;;;21.60;78.40;;;;;;5034594;28;20177;-72
2021/06/06 03:33:20;;;;;;;2.00;0.83;;;22.20;78.50;;;;;;5014757;28;20172;-68
2021/06/06 03:35:48;;;;;;;2.63;0.90;;;22.60;76.10;;;;;;5028724;28;20192;-68
2021/06/06 03:38:16;;;;;;;3.83;1.57;;;22.20;76.00;;;;;;5033872;28;20745;-73
2021/06/06 03:40:46;;;;;;;5.97;3.80;;;22.00;77.10;;;;;;5034205;28;20174;-70
2021/06/06 03:43:17;;;;;;;4.17;1.10;;;22.60;76.40;;;;;;5034054;28;20184;-68
2021/06/06 03:45:44;;;;;;;2.17;0.90;;;23.10;75.10;;;;;;5033820;28;20666;-68
2021/06/06 03:48:12;;;;;;;4.13;1.50;;;22.90;74.20;;;;;;5033960;28;20285;-69
2021/06/06 03:50:42;;;;;;;1.53;1.00;;;23.10;74.30;;;;;;5033698;28;20172;-68
2021/06/06 03:53:10;;;;;;;1.97;0.90;;;23.10;73.50;;;;;;5033928;28;20183;-68
2021/06/06 03:55:38;;;;;;;3.43;0.90;;;22.80;74.70;;;;;;5032655;28;20262;-72
2021/06/06 03:58:06;;;;;;;3.33;0.97;;;23.40;74.60;;;;;;5033454;28;20235;-70
2021/06/06 04:00:41;;;;;;;2.93;0.90;;;23.80;72.70;;;;;;5033362;28;20173;-68
2021/06/06 04:03:08;;;;;;;1.40;0.80;;;23.30;72.60;;;;;;5033355;28;20200;-68
2021/06/06 04:05:36;;;;;;;3.10;1.00;;;23.10;73.80;;;;;;5033385;28;20177;-69
2021/06/06 04:08:05;;;;;;;2.53;0.70;;;23.80;74.10;;;;;;5033096;28;20219;-69
2021/06/06 04:10:32;;;;;;;2.27;0.80;;;24.30;72.90;;;;;;5033398;28;20185;-70
2021/06/06 04:13:00;;;;;;;0.97;0.67;;;24.60;70.50;;;;;;5033528;28;20184;-68
2021/06/06 04:15:27;;;;;;;3.87;1.00;;;24.40;71.00;;;;;;5033428;28;20200;-69
2021/06/06 04:17:55;;;;;;;2.60;0.97;;;24.60;70.60;;;;;;5033110;28;20212;-68
2021/06/06 04:20:24;;;;;;;3.53;0.90;;;24.90;70.70;;;;;;5033069;28;20195;-69
2021/06/06 04:22:52;;;;;;;2.63;0.67;;;25.00;70.80;;;;;;5033040;28;20194;-68
2021/06/06 04:25:21;;;;;;;2.57;0.80;;;25.10;69.30;;;;;;5033389;28;20597;-67
2021/06/06 04:27:48;;;;;;;3.57;0.70;;;25.10;69.60;;;;;;5032687;28;20577;-71
2021/06/06 04:30:16;;;;;;;1.00;0.70;;;25.40;68.30;;;;;;5033081;28;20272;-68
2021/06/06 04:32:43;;;;;;;8.07;1.30;;;25.00;68.70;;;;;;5033229;28;20532;-68
2021/06/06 04:35:11;;;;;;;1.27;0.80;;;25.10;68.50;;;;;;5031426;28;20267;-69
2021/06/06 04:37:38;;;;;;;2.07;0.50;;;25.20;68.00;;;;;;5032290;28;20219;-69
2021/06/06 04:40:09;;;;;;;0.70;0.50;;;25.20;67.70;;;;;;5031238;28;20235;-68
2021/06/06 04:42:37;;;;;;;4.03;1.27;;;25.40;67.60;;;;;;5031004;28;20184;-70
2021/06/06 04:45:07;;;;;;;3.17;0.70;;;25.20;67.90;;;;;;5032851;28;20172;-68
2021/06/06 04:47:35;;;;;;;3.33;0.80;;;24.80;67.90;;;;;;5032632;28;20226;-68
2021/06/06 04:50:03;;;;;;;2.03;0.70;;;24.90;68.10;;;;;;5032906;28;20184;-68
2021/06/06 04:52:36;;;;;;;2.50;0.80;;;25.40;68.20;;;;;;5031447;28;20199;-68
2021/06/06 04:55:07;;;;;;;2.07;0.60;;;25.10;68.00;;;;;;5032314;28;20319;-68
2021/06/06 04:57:35;;;;;;;1.37;0.73;;;25.20;68.50;;;;;;5032479;28;20203;-68
2021/06/06 05:00:04;;;;;;;2.77;0.80;;;25.20;68.60;;;;;;5032634;28;20215;-71
2021/06/06 05:02:31;;;;;;;4.73;0.80;;;25.40;69.00;;;;;;5032461;28;20676;-68
2021/06/06 05:04:59;;;;;;;1.37;0.60;;;25.60;67.20;;;;;;5012965;28;20543;-70
2021/06/06 05:07:26;;;;;;;4.00;0.50;;;25.50;67.40;;;;;;5013388;28;20200;-69
2021/06/06 05:09:54;;;;;;;1.43;0.77;;;25.40;66.60;;;;;;5032399;28;20246;-67
2021/06/06 05:12:21;;;;;;;1.40;0.90;;;25.00;66.50;;;;;;5032341;28;20596;-68
2021/06/06 05:14:49;;;;;;;6.80;0.73;;;24.90;67.80;;;;;;5032327;28;20176;-67
2021/06/06 05:17:16;;;;;;;1.90;0.80;;;24.80;67.70;;;;;;5032452;28;20312;-68
2021/06/06 05:19:43;;;;;;;3.03;0.80;;;25.00;68.20;;;;;;5032512;28;20635;-68
2021/06/06 05:22:11;;;;;;;1.17;0.63;;;25.10;67.10;;;;;;5030599;28;20541;-68
2021/06/06 05:24:39;;;;;;;3.53;0.80;;;25.20;67.30;;;;;;5018103;28;20255;-67
2021/06/06 05:27:07;;;;;;;2.53;1.00;;;25.20;68.00;;;;;;5032238;28;20196;-68
2021/06/06 05:29:34;;;;;;;3.17;0.93;;;24.90;67.70;;;;;;5032152;28;20188;-71
2021/06/06 05:32:03;;;;;;;1.67;0.60;;;24.90;68.30;;;;;;5032457;28;20176;-70
2021/06/06 05:34:31;;;;;;;0.83;0.70;;;24.70;68.20;;;;;;5031833;28;20677;-68
2021/06/06 05:36:58;;;;;;;2.07;0.70;;;24.50;68.60;;;;;;5031924;28;20864;-69
2021/06/06 05:39:25;;;;;;;2.93;0.67;;;24.70;68.70;;;;;;5032057;28;20223;-68
2021/06/06 05:41:53;;;;;;;3.20;0.70;;;24.80;68.50;;;;;;5032389;28;20177;-68
2021/06/06 05:44:20;;;;;;;1.07;0.70;;;25.00;68.70;;;;;;5032197;28;20231;-69
2021/06/06 05:46:47;;;;;;;3.60;0.80;;;24.60;69.50;;;;;;5032356;28;20172;-68
2021/06/06 05:49:15;;;;;;;3.03;0.87;;;24.20;70.40;;;;;;5033958;28;20184;-69
2021/06/06 05:51:42;;;;;;;2.23;0.80;;;24.30;70.20;;;;;;5034959;28;20180;-68
2021/06/06 05:54:09;;;;;;;3.57;0.80;;;24.30;70.10;;;;;;5036096;28;20592;-68
2021/06/06 05:56:37;;;;;;;3.10;0.70;;;24.30;70.20;;;;;;5034591;28;20185;-68
2021/06/06 05:59:04;;;;;;;5.63;0.83;;;23.70;70.60;;;;;;5036034;28;20543;-69
2021/06/06 06:01:32;;;;;;;2.30;0.80;;;23.50;71.60;;;;;;5035531;28;20192;-71
2021/06/06 06:03:59;;;;;;;1.27;0.70;;;23.30;71.50;;;;;;5024557;28;20239;-70
2021/06/06 06:06:26;;;;;;;4.63;1.20;;;22.90;72.90;;;;;;5033957;28;20188;-68
2021/06/06 06:08:55;;;;;;;0.90;0.70;;;22.20;74.60;;;;;;5034987;28;20187;-69
2021/06/06 06:11:23;;;;;;;3.50;1.17;;;21.90;75.70;;;;;;5035912;28;20210;-69
2021/06/06 06:13:53;;;;;;;2.70;0.90;;;21.50;77.10;;;;;;5030173;28;20639;-71
2021/06/06 06:16:25;;;;;;;6.53;1.00;;;21.10;78.60;;;;;;5035510;28;20234;-72
2021/06/06 06:18:53;;;;;;;2.07;0.90;;;20.70;79.80;;;;;;5036811;28;20266;-72
2021/06/06 06:21:23;;;;;;;4.43;0.97;;;20.70;80.60;;;;;;5045265;28;20184;-70
2021/06/06 06:23:50;;;;;;;2.33;1.20;;;20.60;81.60;;;;;;5035391;28;20184;-67
2021/06/06 06:26:19;;;;;;;2.93;1.00;;;20.30;82.50;;;;;;5035078;28;20242;-67
2021/06/06 06:28:47;;;;;;;2.97;1.00;;;20.20;83.10;;;;;;5034071;28;20180;-71
2021/06/06 06:31:16;;;;;;;2.43;0.93;;;19.90;84.10;;;;;;5034955;28;20212;-67
2021/06/06 06:33:44;;;;;;;6.07;0.93;;;19.70;85.70;;;;;;5034346;28;20189;-69
2021/06/06 06:36:13;;;;;;;3.30;1.10;;;19.40;86.40;;;;;;5029676;28;20552;-70
2021/06/06 06:38:41;;;;;;;7.20;1.13;;;19.20;88.20;;;;;;5034712;28;20235;-67
2021/06/06 06:41:08;;;;;;;3.60;1.10;;;18.90;89.00;;;;;;5023263;28;20267;-70
2021/06/06 06:43:36;;;;;;;2.33;1.07;;;18.80;90.10;;;;;;5034543;28;20223;-69
2021/06/06 06:46:03;;;;;;;4.60;1.00;;;18.60;90.50;;;;;;5035388;28;20632;-68
2021/06/06 06:48:31;;;;;;;3.20;1.10;;;18.50;91.20;;;;;;5034122;28;20181;-66
2021/06/06 06:51:00;;;;;;;5.10;1.90;;;18.40;91.70;;;;;;5035100;28;20176;-68
2021/06/06 06:53:28;;;;;;;5.40;2.10;;;18.20;91.80;;;;;;5034266;28;20191;-69
2021/06/06 06:55:56;;;;;;;3.67;1.73;;;18.10;92.10;;;;;;5031552;28;20187;-67
2021/06/06 06:58:23;;;;;;;4.67;1.77;;;17.90;92.40;;;;;;5034466;28;20212;-68
2021/06/06 07:00:53;;;;;;;3.80;1.80;;;17.80;93.20;;;;;;5033801;28;20235;-68
2021/06/06 07:03:26;;;;;;;6.87;1.90;;;17.70;94.10;;;;;;5034496;28;20192;-68
2021/06/06 07:05:55;;;;;;;3.47;1.70;;;17.60;94.70;;;;;;5034577;28;20184;-68
2021/06/06 07:08:27;;;;;;;7.60;2.77;;;17.50;95.50;;;;;;5034517;28;20559;-73
2021/06/06 07:10:54;;;;;;;7.77;3.93;;;17.40;96.30;;;;;;5034482;28;20242;-67
2021/06/06 07:13:23;;;;;;;21.03;10.93;;;17.30;97.00;;;;;;5034722;28;20200;-70
2021/06/06 07:15:53;;;;;;;39.43;22.37;;;17.20;97.50;;;;;;5034392;28;20180;-67
2021/06/06 07:18:22;;;;;;;25.43;14.27;;;17.00;98.20;;;;;;5033996;28;20211;-71
2021/06/06 07:21:03;;;;;;;18.63;7.67;;;17.00;98.50;;;;;;5033686;28;20184;-67
2021/06/06 07:23:33;;;;;;;13.57;6.57;;;16.90;98.90;;;;;;5034202;28;20681;-67
2021/06/06 07:26:05;;;;;;;9.00;3.97;;;16.80;99.30;;;;;;5029609;28;20180;-68
2021/06/06 07:28:32;;;;;;;10.67;3.83;;;16.70;99.80;;;;;;5032707;28;20199;-72
2021/06/06 07:31:03;;;;;;;5.53;3.17;;;16.60;99.90;;;;;;5033054;28;20186;-69
2021/06/06 07:33:35;;;;;;;7.63;2.70;;;16.50;99.90;;;;;;5032449;28;20191;-68
2021/06/06 07:36:04;;;;;;;8.50;2.10;;;16.50;99.90;;;;;;5033771;28;20188;-70
2021/06/06 07:38:31;;;;;;;4.27;2.10;;;16.40;99.90;;;;;;5033886;28;20270;-67
2021/06/06 07:41:00;;;;;;;10.57;3.13;;;16.30;99.90;;;;;;5029661;28;20582;-67
2021/06/06 07:43:28;;;;;;;7.13;2.70;;;16.30;99.90;;;;;;5032564;28;20219;-68
2021/06/06 07:45:56;;;;;;;7.40;2.70;;;16.20;99.90;;;;;;5033469;28;20188;-67
2021/06/06 07:48:23;;;;;;;6.63;3.03;;;16.20;99.90;;;;;;5033449;28;20179;-67
2021/06/06 07:50:53;;;;;;;4.93;2.80;;;16.10;99.90;;;;;;5032898;28;20627;-69
2021/06/06 07:53:22;;;;;;;6.93;2.63;;;16.10;99.90;;;;;;5032530;28;20592;-69
2021/06/06 07:55:54;;;;;;;4.20;2.33;;;16.00;99.90;;;;;;5020831;28;20187;-68
2021/06/06 07:58:24;;;;;;;9.33;4.47;;;16.00;99.90;;;;;;5028802;28;20679;-67
2021/06/06 08:00:52;;;;;;;15.67;6.27;;;16.00;99.90;;;;;;5028424;28;20181;-69
2021/06/06 08:03:20;;;;;;;12.63;6.77;;;15.90;99.90;;;;;;5032949;28;20262;-67
2021/06/06 08:05:48;;;;;;;9.73;5.40;;;15.90;99.90;;;;;;5033591;28;20173;-71
2021/06/06 08:08:17;;;;;;;15.90;8.03;;;15.80;99.90;;;;;;5033260;28;20193;-69
2021/06/06 08:10:48;;;;;;;13.10;6.23;;;15.60;99.90;;;;;;5032489;28;20177;-68
2021/06/06 08:13:16;;;;;;;9.73;5.07;;;15.50;99.90;;;;;;5034139;28;20679;-67
2021/06/06 08:15:45;;;;;;;13.33;5.20;;;15.40;99.90;;;;;;5030692;28;20208;-67
2021/06/06 08:18:15;;;;;;;15.23;5.63;;;15.30;99.90;;;;;;5031328;28;20283;-67
2021/06/06 08:20:49;;;;;;;9.53;5.70;;;15.30;99.90;;;;;;5030294;28;20192;-72
2021/06/06 08:23:17;;;;;;;11.93;5.80;;;15.20;99.90;;;;;;5033173;28;20285;-67
2021/06/06 08:25:45;;;;;;;16.27;6.57;;;15.20;99.90;;;;;;5032627;28;20636;-69
2021/06/06 08:28:14;;;;;;;12.83;7.20;;;15.10;99.90;;;;;;5033010;28;20672;-69
2021/06/06 08:30:49;;;;;;;16.73;8.57;;;15.10;99.90;;;;;;5031307;28;20651;-69
2021/06/06 08:33:26;;;;;;;16.03;8.23;;;15.10;99.90;;;;;;5142403;27;20540;-68
2021/06/06 08:35:56;;;;;;;15.43;7.57;;;15.00;99.90;;;;;;5103110;28;20199;-69
2021/06/06 08:38:25;;;;;;;14.47;7.60;;;15.00;99.90;;;;;;5105935;28;20185;-68
2021/06/06 08:41:08;;;;;;;17.23;7.77;;;15.00;99.90;;;;;;5109078;28;20560;-67
2021/06/06 08:43:49;;;;;;;20.17;6.90;;;15.00;99.90;;;;;;5109149;28;20181;-69
2021/06/06 08:46:19;;;;;;;13.40;5.30;;;14.90;99.90;;;;;;5096365;28;20546;-69
2021/06/06 08:48:47;;;;;;;16.87;6.50;;;14.80;99.90;;;;;;5103733;28;20189;-69
2021/06/06 08:51:24;;;;;;;14.53;8.37;;;14.70;99.90;;;;;;5109636;28;20745;-68
2021/06/06 08:54:16;;;;;;;19.67;8.83;;;14.70;99.90;;;;;;5109475;28;20268;-69
2021/06/06 08:56:44;;;;;;;21.57;12.23;;;14.50;99.90;;;;;;5108151;28;20187;-72
2021/06/06 08:59:33;;;;;;;21.77;9.30;;;14.40;99.90;;;;;;5109947;28;20178;-74
2021/06/06 09:02:20;;;;;;;19.43;8.73;;;14.30;99.90;;;;;;5109848;28;20594;-70
2021/06/06 09:04:48;;;;;;;11.60;6.90;;;14.20;99.90;;;;;;5109227;28;20264;-72
2021/06/06 09:07:31;;;;;;;11.87;7.30;;;14.20;99.90;;;;;;5109394;28;20185;-75
2021/06/06 09:10:04;;;;;;;12.17;6.43;;;14.20;99.90;;;;;;5103823;28;20518;-72
2021/06/06 09:12:32;;;;;;;10.57;5.80;;;14.20;99.90;;;;;;5097716;28;20681;-76
2021/06/06 09:14:59;;;;;;;9.33;5.40;;;14.20;99.90;;;;;;5109126;28;20182;-69
2021/06/06 09:17:45;;;;;;;12.67;6.37;;;14.10;99.90;;;;;;5109179;28;20186;-69
2021/06/06 09:20:30;;;;;;;13.77;6.47;;;14.20;99.90;;;;;;5107283;28;20183;-68
2021/06/06 09:23:25;;;;;;;19.10;6.63;;;14.20;99.90;;;;;;5109110;28;20515;-71
2021/06/06 09:26:20;;;;;;;16.63;6.50;;;14.10;99.90;;;;;;5105876;28;20201;-67
2021/06/06 09:29:01;;;;;;;10.63;6.00;;;14.10;99.90;;;;;;5108991;28;20186;-71
2021/06/06 09:31:29;;;;;;;12.40;6.00;;;14.10;99.90;;;;;;5108341;28;20240;-68
2021/06/06 09:33:57;;;;;;;12.23;5.87;;;14.00;99.90;;;;;;5107256;28;20197;-68
2021/06/06 09:36:26;;;;;;;9.70;5.40;;;14.00;99.90;;;;;;5107810;28;20186;-73
2021/06/06 09:39:03;;;;;;;15.27;5.53;;;13.90;99.90;;;;;;5108975;28;20265;-73
2021/06/06 09:41:42;;;;;;;10.83;5.50;;;13.90;99.90;;;;;;5107726;28;20246;-69
2021/06/06 09:44:30;;;;;;;10.27;5.67;;;13.90;99.90;;;;;;5095173;28;20187;-70
2021/06/06 09:47:02;;;;;;;8.97;5.77;;;13.90;99.90;;;;;;5094868;28;20506;-68
2021/06/06 09:49:47;;;;;;;8.90;5.77;;;13.90;99.90;;;;;;5094474;28;20186;-69
2021/06/06 09:52:27;;;;;;;17.63;7.23;;;13.80;99.90;;;;;;5093791;28;20206;-70
2021/06/06 09:54:58;;;;;;;13.30;6.37;;;13.70;99.90;;;;;;5095146;28;20247;-69
2021/06/06 09:57:38;;;;;;;11.13;5.60;;;13.70;99.90;;;;;;5093718;28;20260;-72
2021/06/06 10:00:25;;;;;;;14.07;6.07;;;13.60;99.90;;;;;;5095281;28;20178;-70
2021/06/06 10:03:00;;;;;;;10.80;5.90;;;13.70;99.90;;;;;;5093988;28;20278;-69
2021/06/06 10:05:37;;;;;;;13.27;8.57;;;13.70;99.90;;;;;;5081040;28;20174;-72
2021/06/06 10:08:28;;;;;;;20.83;10.33;;;13.60;99.90;;;;;;5094497;28;20197;-69
2021/06/06 10:11:10;;;;;;;15.00;7.10;;;13.60;99.90;;;;;;5090375;28;20182;-70
2021/06/06 10:13:42;;;;;;;18.00;11.00;;;13.60;99.90;;;;;;5094474;28;20179;-70
2021/06/06 10:16:15;;;;;;;14.03;7.70;;;13.50;99.90;;;;;;5094277;28;20175;-71
2021/06/06 10:18:57;;;;;;;11.23;6.63;;;13.50;99.90;;;;;;5094113;28;20595;-75
2021/06/06 10:21:32;;;;;;;18.93;6.73;;;13.50;99.90;;;;;;5094450;28;20518;-69
2021/06/06 10:24:13;;;;;;;13.27;7.43;;;13.40;99.90;;;;;;5094622;28;20553;-68
2021/06/06 10:26:44;;;;;;;12.47;7.10;;;13.40;99.90;;;;;;5093947;28;20189;-69
2021/06/06 10:29:34;;;;;;;14.53;7.07;;;13.30;99.90;;;;;;5094689;28;20551;-67
2021/06/06 10:32:06;;;;;;;14.60;7.33;;;13.30;99.90;;;;;;5094161;28;20226;-70
2021/06/06 10:34:50;;;;;;;19.03;8.23;;;13.20;99.90;;;;;;5093430;28;20210;-70
2021/06/06 10:37:17;;;;;;;17.67;7.70;;;13.10;99.90;;;;;;5084920;28;20183;-69
2021/06/06 10:40:00;;;;;;;20.83;8.03;;;13.10;99.90;;;;;;5094035;28;20179;-68
2021/06/06 10:42:49;;;;;;;15.87;7.93;;;13.00;99.90;;;;;;5092850;28;20281;-72
2021/06/06 10:45:27;;;;;;;16.10;6.90;;;13.00;99.90;;;;;;5093945;28;20198;-67
2021/06/06 10:48:21;;;;;;;12.10;6.50;;;13.00;99.90;;;;;;5087097;28;20179;-67
2021/06/06 10:50:52;;;;;;;13.43;6.83;;;13.00;99.90;;;;;;5089488;28;20272;-67
2021/06/06 10:53:28;;;;;;;17.27;7.27;;;13.00;99.90;;;;;;5093897;28;20217;-69
2021/06/06 10:56:30;;;;;;;17.50;6.57;;;13.00;99.90;;;;;;5092607;28;20696;-68
2021/06/06 10:59:10;;;;;;;11.90;5.70;;;12.90;99.90;;;;;;5082792;28;20208;-67
2021/06/06 11:01:43;;;;;;;10.87;5.80;;;12.90;99.90;;;;;;5093687;28;20178;-68
2021/06/06 11:04:14;;;;;;;17.93;6.57;;;12.80;99.90;;;;;;5093448;28;20656;-67
2021/06/06 11:06:47;;;;;;;14.53;6.73;;;12.80;99.90;;;;;;5093697;28;20217;-67
2021/06/06 11:09:31;;;;;;;15.63;6.90;;;12.80;99.90;;;;;;5093564;28;20182;-69
2021/06/06 11:12:09;;;;;;;11.67;6.60;;;12.80;99.90;;;;;;5093304;28;20210;-67
2021/06/06 11:14:49;;;;;;;14.53;6.73;;;12.70;99.90;;;;;;5092868;28;20239;-67
2021/06/06 11:17:34;;;;;;;13.47;6.73;;;12.60;99.90;;;;;;5093278;28;20193;-68
2021/06/06 11:20:28;;;;;;;13.00;7.00;;;12.60;99.90;;;;;;5091058;28;20182;-68
2021/06/06 11:22:57;;;;;;;14.03;6.50;;;12.60;99.90;;;;;;5084898;28;20213;-67
2021/06/06 11:25:39;;;;;;;16.53;7.33;;;12.60;99.90;;;;;;5093239;28;20239;-69
2021/06/06 11:28:34;;;;;;;14.13;7.20;;;12.60;99.90;;;;;;5093529;28;20187;-67
2021/06/06 11:31:05;;;;;;;17.10;7.80;;;12.50;99.90;;;;;;5086270;28;20528;-68
2021/06/06 11:33:54;;;;;;;20.43;8.53;;;12.50;99.90;;;;;;5093052;28;20190;-69
2021/06/06 11:36:37;;;;;;;16.67;8.00;;;12.40;99.90;;;;;;5082069;28;20182;-69
2021/06/06 11:39:39;;;;;;;15.23;8.87;;;12.30;99.90;;;;;;5092858;28;20185;-70
2021/06/06 11:42:29;;;;;;;16.63;8.37;;;12.30;99.90;;;;;;5047582;28;20244;-69
2021/06/06 11:45:05;;;;;;;16.17;8.20;;;12.20;99.90;;;;;;5082777;28;20194;-72
2021/06/06 11:47:42;;;;;;;20.00;8.20;;;12.20;99.90;;;;;;5090061;28;20268;-73
2021/06/06 11:50:23;;;;;;;13.27;7.53;;;12.20;99.90;;;;;;5092576;28;20247;-70
2021/06/06 11:53:18;;;;;;;16.57;8.37;;;12.20;99.90;;;;;;5086040;28;20302;-68
2021/06/06 11:55:51;;;;;;;31.77;16.27;;;12.20;99.90;;;;;;5088381;28;20257;-70
2021/06/06 11:58:26;;;;;;;17.40;9.10;;;12.20;99.90;;;;;;5089978;28;20188;-72
2021/06/06 12:01:25;;;;;;;18.93;8.97;;;12.20;99.90;;;;;;5093160;28;20254;-72
2021/06/06 12:04:07;;;;;;;17.50;8.50;;;12.10;99.90;;;;;;5071488;28;20198;-69
2021/06/06 12:06:36;;;;;;;15.57;7.93;;;12.10;99.90;;;;;;5091330;28;20183;-69
2021/06/06 12:09:36;;;;;;;13.73;7.13;;;12.00;99.90;;;;;;5093034;28;20645;-69
2021/06/06 12:12:17;;;;;;;16.03;8.50;;;12.00;99.90;;;;;;5075554;28;20213;-69
2021/06/06 12:14:44;;;;;;;13.13;8.27;;;12.00;99.90;;;;;;5092364;28;20839;-69
2021/06/06 12:17:23;;;;;;;13.33;7.90;;;11.90;99.90;;;;;;5092349;28;20174;-68
2021/06/06 12:19:57;;;;;;;17.10;7.83;;;11.90;99.90;;;;;;5091988;28;20645;-70
2021/06/06 12:22:29;;;;;;;16.70;8.70;;;11.90;99.90;;;;;;5091479;28;20248;-71
2021/06/06 12:25:05;;;;;;;16.30;8.33;;;11.90;99.90;;;;;;5085470;28;20178;-69
2021/06/06 12:27:33;;;;;;;16.73;8.73;;;11.80;99.90;;;;;;5098129;28;20648;-69
2021/06/06 12:30:13;;;;;;;14.37;8.37;;;11.80;99.90;;;;;;5085317;28;20178;-70
2021/06/06 12:32:49;;;;;;;13.53;8.37;;;11.80;99.90;;;;;;5078590;28;20279;-69
2021/06/06 12:35:19;;;;;;;16.00;9.07;;;11.80;99.90;;;;;;5091308;28;20182;-69
2021/06/06 12:37:49;;;;;;;13.90;8.37;;;11.70;99.90;;;;;;5084601;28;20675;-70
2021/06/06 12:40:20;;;;;;;15.67;8.67;;;11.70;99.90;;;;;;5085144;28;20190;-70
2021/06/06 12:42:49;;;;;;;19.73;8.97;;;11.70;99.90;;;;;;5087105;28;20179;-71
2021/06/06 12:45:19;;;;;;;14.80;8.43;;;11.70;99.90;;;;;;5091494;28;20182;-67
2021/06/06 12:47:48;;;;;;;14.70;8.57;;;11.70;99.90;;;;;;5091913;28;20281;-71
2021/06/06 12:50:15;;;;;;;17.23;9.23;;;11.60;99.90;;;;;;5092494;28;20182;-74
2021/06/06 12:52:58;;;;;;;16.67;9.17;;;11.60;99.90;;;;;;5092022;28;20224;-73
2021/06/06 12:55:36;;;;;;;18.00;9.57;;;11.50;99.90;;;;;;5091735;28;20178;-71
2021/06/06 12:58:16;;;;;;;21.10;10.07;;;11.50;99.90;;;;;;5092325;28;20189;-71
2021/06/06 13:00:52;;;;;;;21.67;11.07;;;11.50;99.90;;;;;;5092043;28;20178;-68
2021/06/06 13:03:19;;;;;;;21.87;11.03;;;11.60;99.90;;;;;;5077127;28;20185;-70
2021/06/06 13:05:49;;;;;;;28.10;10.90;;;11.50;99.90;;;;;;5091897;28;20178;-67
2021/06/06 13:08:37;;;;;;;32.00;10.17;;;11.50;99.90;;;;;;5091880;28;20667;-67
2021/06/06 13:11:12;;;;;;;20.03;10.77;;;11.40;99.90;;;;;;5086777;28;20209;-71
2021/06/06 13:14:17;;;;;;;19.80;10.17;;;11.40;99.90;;;;;;5092007;28;20201;-73
2021/06/06 13:16:59;;;;;;;21.77;10.43;;;11.40;99.90;;;;;;5091620;28;20548;-75